createdAt,value
2023-03-25T00:01:59.414Z,6.70
2023-03-25T00:04:29.582Z,8.03
2023-03-25T00:06:58.414Z,7.80
2023-03-25T00:09:27.067Z,6.87
2023-03-25T00:11:55.476Z,8.10
2023-03-25T00:14:25.038Z,7.40
2023-03-25T00:16:53.595Z,7.30
2023-03-25T00:19:22.608Z,8.43
2023-03-25T00:21:52.435Z,8.40
2023-03-25T00:24:21.397Z,7.43
2023-03-25T00:26:49.863Z,7.23
2023-03-25T00:29:18.768Z,7.60
2023-03-25T00:31:47.853Z,7.70
2023-03-25T00:34:16.798Z,6.57
2023-03-25T00:36:45.667Z,7.60
2023-03-25T00:39:15.752Z,6.57
2023-03-25T00:41:45.220Z,7.37
2023-03-25T00:44:14.365Z,6.77
2023-03-25T00:46:42.793Z,7.30
2023-03-25T00:49:12.281Z,7.07
2023-03-25T00:51:52.906Z,6.97
2023-03-25T00:54:24.378Z,8.07
2023-03-25T00:56:54.624Z,7.83
2023-03-25T00:59:23.596Z,7.50
2023-03-25T01:01:56.344Z,8.53
2023-03-25T01:04:25.162Z,7.33
2023-03-25T01:06:53.599Z,7.37
2023-03-25T01:09:24.084Z,6.83
2023-03-25T01:11:52.584Z,6.50
2023-03-25T01:14:24.247Z,6.10
2023-03-25T01:16:52.720Z,6.50
2023-03-25T01:19:22.419Z,6.60
2023-03-25T01:21:51.051Z,5.60
2023-03-25T01:24:19.923Z,6.40
2023-03-25T01:26:50.533Z,6.13
2023-03-25T01:29:22.374Z,6.47
2023-03-25T01:31:51.564Z,7.20
2023-03-25T01:34:20.809Z,6.70
2023-03-25T01:36:49.346Z,6.60
2023-03-25T01:39:20.064Z,6.70
2023-03-25T01:41:51.839Z,6.83
2023-03-25T01:44:58.106Z,5.87
2023-03-25T01:47:27.364Z,6.17
2023-03-25T01:49:56.358Z,5.83
2023-03-25T01:52:29.772Z,6.30
2023-03-25T01:54:59.851Z,6.03
2023-03-25T01:57:32.359Z,6.27
2023-03-25T02:00:01.307Z,6.47
2023-03-25T02:02:35.034Z,5.37
2023-03-25T02:05:10.629Z,5.50
2023-03-25T02:07:42.741Z,6.03
2023-03-25T02:10:12.769Z,5.90
2023-03-25T02:12:45.556Z,6.80
2023-03-25T02:15:17.999Z,6.03
2023-03-25T02:18:03.925Z,5.90
2023-03-25T02:21:03.227Z,5.73
2023-03-25T02:23:58.423Z,6.90
2023-03-25T02:27:00.382Z,5.67
2023-03-25T02:29:49.448Z,5.50
2023-03-25T02:32:38.601Z,6.00
2023-03-25T02:35:25.463Z,5.97
2023-03-25T02:38:14.832Z,6.53
2023-03-25T02:40:52.222Z,6.33
2023-03-25T02:43:26.285Z,6.23
2023-03-25T02:45:59.043Z,7.07
2023-03-25T02:48:33.992Z,6.87
2023-03-25T02:51:10.250Z,5.13
2023-03-25T02:53:42.786Z,5.73
2023-03-25T02:56:15.994Z,5.73
2023-03-25T02:58:46.520Z,6.20
2023-03-25T03:01:15.188Z,5.67
2023-03-25T03:03:44.310Z,5.77
2023-03-25T03:06:18.813Z,5.53
2023-03-25T03:09:14.879Z,5.33
2023-03-25T03:11:53.143Z,6.23
2023-03-25T03:14:35.755Z,5.50
2023-03-25T03:17:13.630Z,6.03
2023-03-25T03:19:47.805Z,5.90
2023-03-25T03:22:35.157Z,6.43
2023-03-25T03:25:10.650Z,5.57
2023-03-25T03:27:45.673Z,6.93
2023-03-25T03:30:21.570Z,5.67
2023-03-25T03:32:55.214Z,5.60
2023-03-25T03:35:29.178Z,5.50
2023-03-25T03:38:01.213Z,6.30
2023-03-25T03:40:33.076Z,6.10
2023-03-25T03:43:04.548Z,5.90
2023-03-25T03:45:39.824Z,4.83
2023-03-25T03:48:13.169Z,5.03
2023-03-25T03:50:48.783Z,5.70
2023-03-25T03:53:21.712Z,5.60
2023-03-25T03:55:58.097Z,5.80
2023-03-25T03:58:30.360Z,5.83
2023-03-25T04:01:04.478Z,4.87
2023-03-25T04:03:39.035Z,5.40
2023-03-25T04:06:21.275Z,5.57
2023-03-25T04:08:58.917Z,5.93
2023-03-25T04:11:34.301Z,5.67
2023-03-25T04:14:04.585Z,5.83
2023-03-25T04:16:36.072Z,5.40
2023-03-25T04:19:05.415Z,5.57
2023-03-25T04:21:34.373Z,5.77
2023-03-25T04:24:02.753Z,5.20
2023-03-25T04:26:33.936Z,5.57
2023-03-25T04:29:02.975Z,6.20
2023-03-25T04:31:34.876Z,5.70
2023-03-25T04:34:04.560Z,6.00
2023-03-25T04:36:37.786Z,5.67
2023-03-25T04:39:07.350Z,5.77
2023-03-25T04:41:37.736Z,6.17
2023-03-25T04:44:08.051Z,5.83
2023-03-25T04:46:38.675Z,6.10
2023-03-25T04:49:13.966Z,6.60
2023-03-25T04:51:45.026Z,5.50
2023-03-25T04:54:14.694Z,5.20
2023-03-25T04:56:49.732Z,5.90
2023-03-25T04:59:18.495Z,4.80
2023-03-25T05:01:47.372Z,6.03
2023-03-25T05:04:17.626Z,5.77
2023-03-25T05:06:49.400Z,5.57
2023-03-25T05:09:20.144Z,5.70
2023-03-25T05:11:51.347Z,5.60
2023-03-25T05:14:22.016Z,5.47
2023-03-25T05:16:50.856Z,5.80
2023-03-25T05:19:20.835Z,4.93
2023-03-25T05:21:49.817Z,5.83
2023-03-25T05:24:18.283Z,6.33
2023-03-25T05:26:47.377Z,5.70
2023-03-25T05:29:17.478Z,5.80
2023-03-25T05:31:48.600Z,5.77
2023-03-25T05:34:17.470Z,5.20
2023-03-25T05:36:46.413Z,4.70
2023-03-25T05:39:15.313Z,4.70
2023-03-25T05:41:45.696Z,5.77
2023-03-25T05:44:18.849Z,5.67
2023-03-25T05:46:47.658Z,5.97
2023-03-25T05:49:16.130Z,5.30
2023-03-25T05:51:45.118Z,5.43
2023-03-25T05:54:13.650Z,6.30
2023-03-25T05:56:45.643Z,5.37
2023-03-25T05:59:14.468Z,5.03
2023-03-25T06:01:45.670Z,5.57
2023-03-25T06:04:16.920Z,5.70
2023-03-25T06:06:45.729Z,5.57
2023-03-25T06:09:14.489Z,6.23
2023-03-25T06:11:43.202Z,4.57
2023-03-25T06:14:11.635Z,5.70
2023-03-25T06:16:40.408Z,5.33
2023-03-25T06:19:10.221Z,5.27
2023-03-25T06:21:39.448Z,5.50
2023-03-25T06:24:08.810Z,6.13
2023-03-25T06:26:37.519Z,5.27
2023-03-25T06:29:05.963Z,6.03
2023-03-25T06:31:34.774Z,6.10
2023-03-25T06:34:03.571Z,5.47
2023-03-25T06:36:34.783Z,5.40
2023-03-25T06:39:05.172Z,6.23
2023-03-25T06:41:35.955Z,5.33
2023-03-25T06:44:16.825Z,5.27
2023-03-25T06:47:32.196Z,4.83
2023-03-25T06:50:00.799Z,5.30
2023-03-25T06:52:30.901Z,5.33
2023-03-25T06:54:59.412Z,5.03
2023-03-25T06:57:28.107Z,5.57
2023-03-25T06:59:56.558Z,5.27
2023-03-25T07:02:26.025Z,5.23
2023-03-25T07:04:54.862Z,5.50
2023-03-25T07:07:23.712Z,4.03
2023-03-25T07:09:55.928Z,4.63
2023-03-25T07:12:24.978Z,4.57
2023-03-25T07:14:53.673Z,4.93
2023-03-25T07:17:22.929Z,4.63
2023-03-25T07:19:51.848Z,4.87
2023-03-25T07:22:20.700Z,4.63
2023-03-25T07:24:49.123Z,5.40
2023-03-25T07:27:19.856Z,4.73
2023-03-25T07:29:57.650Z,4.00
2023-03-25T07:32:26.418Z,4.40
2023-03-25T07:34:54.886Z,5.60
2023-03-25T07:37:23.637Z,4.43
2023-03-25T07:39:52.015Z,4.37
2023-03-25T07:42:22.145Z,4.30
2023-03-25T07:45:14.210Z,3.80
2023-03-25T07:47:50.015Z,4.50
2023-03-25T07:50:19.018Z,4.10
2023-03-25T07:52:47.964Z,4.87
2023-03-25T07:55:18.012Z,5.53
2023-03-25T07:57:48.221Z,4.17
2023-03-25T08:00:16.991Z,5.53
2023-03-25T08:02:45.802Z,4.23
2023-03-25T08:05:21.195Z,4.77
2023-03-25T08:07:50.231Z,4.60
2023-03-25T08:10:19.843Z,4.87
2023-03-25T08:12:54.177Z,4.80
2023-03-25T08:15:24.706Z,4.70
2023-03-25T08:17:54.710Z,4.63
2023-03-25T08:20:23.368Z,5.70
2023-03-25T08:22:52.346Z,4.77
2023-03-25T08:25:20.973Z,4.70
2023-03-25T08:27:51.033Z,4.47
2023-03-25T08:30:19.470Z,4.63
2023-03-25T08:32:54.834Z,4.90
2023-03-25T08:35:24.754Z,4.97
2023-03-25T08:37:53.583Z,4.47
2023-03-25T08:40:21.988Z,4.80
2023-03-25T08:42:52.137Z,4.60
2023-03-25T08:45:20.943Z,3.80
2023-03-25T08:47:49.667Z,4.20
2023-03-25T08:50:18.793Z,3.50
2023-03-25T08:52:48.514Z,3.23
2023-03-25T08:55:17.777Z,4.57
2023-03-25T08:57:46.524Z,3.83
2023-03-25T09:00:18.978Z,4.72
2023-03-25T09:02:47.850Z,3.47
2023-03-25T09:05:18.818Z,4.43
2023-03-25T09:07:48.073Z,3.67
2023-03-25T09:10:16.660Z,3.95
2023-03-25T09:12:45.924Z,4.33
2023-03-25T09:15:15.659Z,3.80
2023-03-25T09:17:45.896Z,3.25
2023-03-25T09:20:14.467Z,3.50
2023-03-25T09:22:43.837Z,3.10
2023-03-25T09:25:12.418Z,3.13
2023-03-25T09:27:41.422Z,3.50
2023-03-25T09:30:11.078Z,4.18
2023-03-25T09:32:40.076Z,4.40
2023-03-25T09:35:10.132Z,4.05
2023-03-25T09:37:39.159Z,4.13
2023-03-25T09:40:09.153Z,4.20
2023-03-25T09:43:01.628Z,4.03
2023-03-25T09:45:35.392Z,4.15
2023-03-25T09:48:14.421Z,5.10
2023-03-25T09:50:45.618Z,4.40
2023-03-25T09:53:24.190Z,3.50
2023-03-25T09:55:53.689Z,3.88
2023-03-25T09:58:29.818Z,3.97
2023-03-25T10:01:02.124Z,4.13
2023-03-25T10:03:36.533Z,2.97
2023-03-25T10:06:18.830Z,3.07
2023-03-25T10:09:01.905Z,3.50
2023-03-25T10:11:37.170Z,3.33
2023-03-25T10:14:11.273Z,2.70
2023-03-25T10:16:50.347Z,3.22
2023-03-25T10:19:29.968Z,2.97
2023-03-25T10:22:04.727Z,3.00
2023-03-25T10:24:37.445Z,2.83
2023-03-25T10:27:11.252Z,2.40
2023-03-25T10:29:48.665Z,2.95
2023-03-25T10:32:19.148Z,3.47
2023-03-25T10:34:51.431Z,3.15
2023-03-25T10:37:29.865Z,2.75
2023-03-25T10:40:12.815Z,2.60
2023-03-25T10:42:46.243Z,2.85
2023-03-25T10:45:18.168Z,2.88
2023-03-25T10:47:49.502Z,3.22
2023-03-25T10:50:20.669Z,2.78
2023-03-25T10:52:52.538Z,2.80
2023-03-25T10:55:26.944Z,2.90
2023-03-25T10:58:01.705Z,3.08
2023-03-25T11:00:30.881Z,2.38
2023-03-25T11:02:59.469Z,2.60
2023-03-25T11:05:33.079Z,2.33
2023-03-25T11:08:18.275Z,2.08
2023-03-25T11:10:57.310Z,2.67
2023-03-25T11:13:26.962Z,2.38
2023-03-25T11:16:01.954Z,2.63
2023-03-25T11:18:35.638Z,2.67
2023-03-25T11:21:08.744Z,2.73
2023-03-25T11:23:44.317Z,2.28
2023-03-25T11:26:19.301Z,2.00
2023-03-25T11:28:49.972Z,2.73
2023-03-25T11:31:21.014Z,2.33
2023-03-25T11:34:06.315Z,2.20
2023-03-25T11:36:39.436Z,3.00
2023-03-25T11:39:18.343Z,2.73
2023-03-25T11:41:50.268Z,3.33
2023-03-25T11:44:24.521Z,2.33
2023-03-25T11:46:58.493Z,2.47
2023-03-25T11:49:29.550Z,2.30
2023-03-25T11:52:01.238Z,2.50
2023-03-25T11:54:32.141Z,2.07
2023-03-25T11:57:04.264Z,2.30
2023-03-25T11:59:39.982Z,2.93
2023-03-25T12:02:23.047Z,2.37
2023-03-25T12:05:01.740Z,3.47
2023-03-25T12:07:31.522Z,2.13
2023-03-25T12:10:07.147Z,1.97
2023-03-25T12:12:44.170Z,2.72
2023-03-25T12:15:25.028Z,1.88
2023-03-25T12:18:06.704Z,2.30
2023-03-25T12:20:42.357Z,1.87
2023-03-25T12:23:25.650Z,2.25
2023-03-25T12:26:06.756Z,2.07
2023-03-25T12:28:55.477Z,2.58
2023-03-25T12:31:34.991Z,2.47
2023-03-25T12:34:19.700Z,2.80
2023-03-25T12:36:59.868Z,2.08
2023-03-25T12:39:45.416Z,3.03
2023-03-25T12:42:40.236Z,3.47
2023-03-25T12:45:25.759Z,3.20
2023-03-25T12:47:58.029Z,2.17
2023-03-25T12:50:47.001Z,3.30
2023-03-25T12:53:34.336Z,3.10
2023-03-25T12:56:14.744Z,2.90
2023-03-25T12:59:00.032Z,2.60
2023-03-25T13:01:36.599Z,3.03
2023-03-25T13:04:21.489Z,2.47
2023-03-25T13:07:00.141Z,3.60
2023-03-25T13:09:35.066Z,3.00
2023-03-25T13:12:08.422Z,2.70
2023-03-25T13:14:42.756Z,2.70
2023-03-25T13:17:18.820Z,3.05
2023-03-25T13:19:47.884Z,4.05
2023-03-25T13:22:24.736Z,3.17
2023-03-25T13:24:57.803Z,3.10
2023-03-25T13:27:32.223Z,2.45
2023-03-25T13:30:04.513Z,2.22
2023-03-25T13:32:38.174Z,3.22
2023-03-25T13:35:14.700Z,2.42
2023-03-25T13:37:47.820Z,2.42
2023-03-25T13:40:26.767Z,2.42
2023-03-25T13:42:59.777Z,2.17
2023-03-25T13:45:33.336Z,3.08
2023-03-25T13:48:10.007Z,3.25
2023-03-25T13:50:39.863Z,2.70
2023-03-25T13:53:15.377Z,2.47
2023-03-25T13:55:48.212Z,1.98
2023-03-25T13:58:49.128Z,2.42
2023-03-25T14:01:43.040Z,3.20
2023-03-25T14:04:41.221Z,2.25
2023-03-25T14:07:42.628Z,2.88
2023-03-25T14:10:43.461Z,2.50
2023-03-25T14:13:14.132Z,2.35
2023-03-25T14:15:48.419Z,3.30
2023-03-25T14:18:21.274Z,2.25
2023-03-25T14:20:51.408Z,3.13
2023-03-25T14:23:23.119Z,2.75
2023-03-25T14:25:57.434Z,2.63
2023-03-25T14:28:37.411Z,2.47
2023-03-25T14:31:18.127Z,2.55
2023-03-25T14:34:23.439Z,3.00
2023-03-25T14:37:18.976Z,3.22
2023-03-25T14:39:47.489Z,3.35
2023-03-25T14:42:30.380Z,2.25
2023-03-25T14:45:42.088Z,3.35
2023-03-25T14:48:27.141Z,2.83
2023-03-25T14:51:36.050Z,2.92
2023-03-25T14:54:15.685Z,2.00
2023-03-25T14:56:49.548Z,2.28
2023-03-25T14:59:23.810Z,2.92
2023-03-25T15:01:53.288Z,2.28
2023-03-25T15:04:30.818Z,2.85
2023-03-25T15:07:02.727Z,2.38
2023-03-25T15:09:32.430Z,3.03
2023-03-25T15:12:03.662Z,3.58
2023-03-25T15:14:36.315Z,2.67
2023-03-25T15:17:07.434Z,2.42
2023-03-25T15:20:12.895Z,3.20
2023-03-25T15:22:42.950Z,3.05
2023-03-25T15:25:18.555Z,3.10
2023-03-25T15:27:58.062Z,3.13
2023-03-25T15:30:48.606Z,3.17
2023-03-25T15:33:30.996Z,3.22
2023-03-25T15:36:17.500Z,2.40
2023-03-25T15:38:57.041Z,2.75
2023-03-25T15:42:02.834Z,4.07
2023-03-25T15:45:04.379Z,3.55
2023-03-25T15:47:54.310Z,3.78
2023-03-25T15:50:46.308Z,3.55
2023-03-25T15:53:45.484Z,3.33
2023-03-25T15:56:17.657Z,3.72
2023-03-25T15:58:54.424Z,3.60
2023-03-25T16:01:29.210Z,4.57
2023-03-25T16:04:02.317Z,4.30
2023-03-25T16:06:32.217Z,4.80
2023-03-25T16:09:03.087Z,4.70
2023-03-25T16:11:33.050Z,5.68
2023-03-25T16:14:12.594Z,2.67
2023-03-25T16:16:46.055Z,3.80
2023-03-25T16:19:19.667Z,3.42
2023-03-25T16:21:50.587Z,3.80
2023-03-25T16:24:23.128Z,4.10
2023-03-25T16:26:53.456Z,3.67
2023-03-25T16:29:24.648Z,3.35
2023-03-25T16:31:56.519Z,3.95
2023-03-25T16:34:26.252Z,2.92
2023-03-25T16:36:56.151Z,4.50
2023-03-25T16:39:26.149Z,4.30
2023-03-25T16:42:03.397Z,5.03
2023-03-25T16:44:32.357Z,6.38
2023-03-25T16:47:02.053Z,5.25
2023-03-25T16:49:33.587Z,5.10
2023-03-25T16:52:03.584Z,4.43
2023-03-25T16:54:37.743Z,4.05
2023-03-25T16:57:09.660Z,3.97
2023-03-25T16:59:39.294Z,4.35
2023-03-25T17:02:26.147Z,4.55
2023-03-25T17:04:58.600Z,4.57
2023-03-25T17:07:29.722Z,4.25
2023-03-25T17:10:00.714Z,3.65
2023-03-25T17:12:30.825Z,4.43
2023-03-25T17:15:08.726Z,4.00
2023-03-25T17:17:43.585Z,3.65
2023-03-25T17:20:19.488Z,2.88
2023-03-25T17:23:04.226Z,4.05
2023-03-25T17:25:36.528Z,3.40
2023-03-25T17:28:26.705Z,3.75
2023-03-25T17:30:56.096Z,2.90
2023-03-25T17:33:35.181Z,3.20
2023-03-25T17:36:09.630Z,4.50
2023-03-25T17:38:44.911Z,3.72
2023-03-25T17:41:15.514Z,4.22
2023-03-25T17:43:48.632Z,5.13
2023-03-25T17:46:22.142Z,4.28
2023-03-25T17:48:53.450Z,4.40
2023-03-25T17:51:23.267Z,3.25
2023-03-25T17:53:52.015Z,2.47
2023-03-25T17:56:25.129Z,3.07
2023-03-25T17:58:59.597Z,3.42
2023-03-25T18:01:30.669Z,2.53
2023-03-25T18:03:59.302Z,2.83
2023-03-25T18:06:28.541Z,3.73
2023-03-25T18:08:57.700Z,4.00
2023-03-25T18:11:26.405Z,4.97
2023-03-25T18:13:56.230Z,6.73
2023-03-25T18:16:25.472Z,6.13
2023-03-25T18:18:53.925Z,5.47
2023-03-25T18:21:23.643Z,5.03
2023-03-25T18:23:52.316Z,5.40
2023-03-25T18:26:21.084Z,4.57
2023-03-25T18:28:49.791Z,4.97
2023-03-25T18:31:22.378Z,4.23
2023-03-25T18:33:51.563Z,3.90
2023-03-25T18:36:20.508Z,4.70
2023-03-25T18:38:49.133Z,4.30
2023-03-25T18:41:19.679Z,4.93
2023-03-25T18:43:48.147Z,5.20
2023-03-25T18:46:17.424Z,6.40
2023-03-25T18:48:47.238Z,7.27
2023-03-25T18:51:16.039Z,5.87
2023-03-25T18:53:44.499Z,4.68
2023-03-25T18:56:13.273Z,5.33
2023-03-25T18:58:41.707Z,3.93
2023-03-25T19:01:15.615Z,4.07
2023-03-25T19:03:44.872Z,3.43
2023-03-25T19:06:15.621Z,3.60
2023-03-25T19:08:44.799Z,3.77
2023-03-25T19:11:20.877Z,4.57
2023-03-25T19:13:53.875Z,2.67
2023-03-25T19:16:23.028Z,3.53
2023-03-25T19:18:51.619Z,3.07
2023-03-25T19:21:21.901Z,3.50
2023-03-25T19:23:52.181Z,3.40
2023-03-25T19:26:23.377Z,4.00
2023-03-25T19:28:51.892Z,3.07
2023-03-25T19:31:20.695Z,3.73
2023-03-25T19:33:49.288Z,4.43
2023-03-25T19:36:19.267Z,4.20
2023-03-25T19:38:49.279Z,4.47
2023-03-25T19:41:18.505Z,4.93
2023-03-25T19:43:47.037Z,4.33
2023-03-25T19:46:15.904Z,5.43
2023-03-25T19:48:44.424Z,4.37
2023-03-25T19:51:13.828Z,4.50
2023-03-25T19:53:42.392Z,4.67
2023-03-25T19:56:14.111Z,5.60
2023-03-25T19:58:42.691Z,4.93
2023-03-25T20:01:12.263Z,4.80
2023-03-25T20:03:41.280Z,5.70
2023-03-25T20:06:10.867Z,4.53
2023-03-25T20:08:39.496Z,6.20
2023-03-25T20:11:13.311Z,5.93
2023-03-25T20:13:43.535Z,5.17
2023-03-25T20:16:13.256Z,4.93
2023-03-25T20:18:42.428Z,6.33
2023-03-25T20:21:11.944Z,5.33
2023-03-25T20:23:40.481Z,6.70
2023-03-25T20:26:11.261Z,6.23
2023-03-25T20:28:41.214Z,8.67
2023-03-25T20:31:18.680Z,6.40
2023-03-25T20:33:47.805Z,8.17
2023-03-25T20:36:16.900Z,6.93
2023-03-25T20:38:56.652Z,7.47
2023-03-25T20:41:27.336Z,5.87
2023-03-25T20:43:57.369Z,6.10
2023-03-25T20:46:28.771Z,5.40
2023-03-25T20:48:57.890Z,5.10
2023-03-25T20:51:27.003Z,5.43
2023-03-25T20:53:57.041Z,4.47
2023-03-25T20:56:26.441Z,4.77
2023-03-25T20:58:56.268Z,4.87
2023-03-25T21:01:25.150Z,4.77
2023-03-25T21:03:53.974Z,4.40
2023-03-25T21:06:26.674Z,4.67
2023-03-25T21:09:07.251Z,3.60
2023-03-25T21:11:36.307Z,4.53
2023-03-25T21:14:06.673Z,4.70
2023-03-25T21:16:37.761Z,3.77
2023-03-25T21:19:10.026Z,3.33
2023-03-25T21:21:39.468Z,3.80
2023-03-25T21:24:08.673Z,3.87
2023-03-25T21:26:37.536Z,3.83
2023-03-25T21:29:07.471Z,3.53
2023-03-25T21:31:36.407Z,3.80
2023-03-25T21:34:04.930Z,3.17
2023-03-25T21:36:36.103Z,3.80
2023-03-25T21:39:06.915Z,3.30
2023-03-25T21:41:36.893Z,4.30
2023-03-25T21:44:07.737Z,3.60
2023-03-25T21:46:36.941Z,4.03
2023-03-25T21:49:06.070Z,3.23
2023-03-25T21:51:35.960Z,2.70
2023-03-25T21:54:04.592Z,3.23
2023-03-25T21:56:34.861Z,3.43
2023-03-25T21:59:04.568Z,3.80
2023-03-25T22:01:35.855Z,3.50
2023-03-25T22:04:06.736Z,3.57
2023-03-25T22:06:39.534Z,3.80
2023-03-25T22:09:09.221Z,3.77
2023-03-25T22:11:38.581Z,3.37
2023-03-25T22:14:09.447Z,4.90
2023-03-25T22:16:39.893Z,3.83
2023-03-25T22:19:08.662Z,2.97
2023-03-25T22:21:38.141Z,3.50
2023-03-25T22:24:08.523Z,4.23
2023-03-25T22:26:39.951Z,3.87
2023-03-25T22:29:11.558Z,3.93
2023-03-25T22:31:42.920Z,4.53
2023-03-25T22:34:14.923Z,3.80
2023-03-25T22:36:49.685Z,4.33
2023-03-25T22:39:19.194Z,4.17
2023-03-25T22:41:48.240Z,4.20
2023-03-25T22:44:17.994Z,4.97
2023-03-25T22:46:49.151Z,3.77
2023-03-25T22:49:18.320Z,3.57
2023-03-25T22:51:47.233Z,4.23
2023-03-25T22:54:16.219Z,4.20
2023-03-25T22:56:45.418Z,5.27
2023-03-25T22:59:15.314Z,4.03
2023-03-25T23:01:44.433Z,4.57
2023-03-25T23:04:14.479Z,4.20
2023-03-25T23:06:46.966Z,4.57
2023-03-25T23:09:39.634Z,4.23
2023-03-25T23:12:10.936Z,4.77
2023-03-25T23:14:40.861Z,4.00
2023-03-25T23:17:12.028Z,3.97
2023-03-25T23:19:41.928Z,4.83
2023-03-25T23:22:10.776Z,4.10
2023-03-25T23:24:39.573Z,5.00
2023-03-25T23:27:10.643Z,5.37
2023-03-25T23:29:40.150Z,4.60
2023-03-25T23:32:10.136Z,4.87
2023-03-25T23:34:40.330Z,5.43
2023-03-25T23:37:10.468Z,3.50
2023-03-25T23:39:40.595Z,4.93
2023-03-25T23:42:09.717Z,4.13
2023-03-25T23:44:38.337Z,3.97
2023-03-25T23:47:07.337Z,4.70
2023-03-25T23:49:38.135Z,5.23
2023-03-25T23:52:11.176Z,4.93
2023-03-25T23:54:41.694Z,3.83
2023-03-25T23:57:10.560Z,4.20
2023-03-25T23:59:38.993Z,4.03
